sensor_id;sensor_type;location;lat;lon;timestamp;pressure;altitude;pressure_sealevel;temperature;humidity
69570;BME280;56781;42.292;23.146;2023-04-15T00:01:08;94859.09;;;2.08;100.00
69570;BME280;56781;42.292;23.146;2023-04-15T00:03:35;94873.88;;;2.25;100.00
69570;BME280;56781;42.292;23.146;2023-04-15T00:06:03;94888.94;;;2.50;100.00
69570;BME280;56781;42.292;23.146;2023-04-15T00:08:30;94877.34;;;2.61;100.00
69570;BME280;56781;42.292;23.146;2023-04-15T00:10:57;94881.28;;;2.74;100.00
69570;BME280;56781;42.292;23.146;2023-04-15T00:13:28;94873.34;;;2.89;100.00
69570;BME280;56781;42.292;23.146;2023-04-15T00:15:56;94878.34;;;2.96;100.00
69570;BME280;56781;42.292;23.146;2023-04-15T00:18:24;94879.16;;;2.76;100.00
69570;BME280;56781;42.292;23.146;2023-04-15T00:20:51;94879.44;;;2.74;100.00
69570;BME280;56781;42.292;23.146;2023-04-15T00:23:19;94881.31;;;2.63;100.00
69570;BME280;56781;42.292;23.146;2023-04-15T00:25:46;94904.00;;;2.85;100.00
69570;BME280;56781;42.292;23.146;2023-04-15T00:28:13;94897.13;;;2.74;100.00
69570;BME280;56781;42.292;23.146;2023-04-15T00:30:40;94876.28;;;2.67;100.00
69570;BME280;56781;42.292;23.146;2023-04-15T00:33:08;94900.31;;;2.76;100.00
69570;BME280;56781;42.292;23.146;2023-04-15T00:35:35;94901.88;;;2.82;100.00
69570;BME280;56781;42.292;23.146;2023-04-15T00:38:04;94898.69;;;2.85;100.00
69570;BME280;56781;42.292;23.146;2023-04-15T00:40:31;94916.16;;;2.86;100.00
69570;BME280;56781;42.292;23.146;2023-04-15T00:42:59;94890.78;;;2.44;100.00
69570;BME280;56781;42.292;23.146;2023-04-15T00:45:26;94889.22;;;2.38;100.00
69570;BME280;56781;42.292;23.146;2023-04-15T00:47:54;94893.91;;;1.95;100.00
69570;BME280;56781;42.292;23.146;2023-04-15T00:50:22;94895.50;;;1.91;100.00
69570;BME280;56781;42.292;23.146;2023-04-15T00:52:49;94902.59;;;1.80;100.00
69570;BME280;56781;42.292;23.146;2023-04-15T00:55:16;94901.25;;;1.72;100.00
69570;BME280;56781;42.292;23.146;2023-04-15T00:57:45;94915.81;;;1.90;100.00
69570;BME280;56781;42.292;23.146;2023-04-15T01:00:12;94903.13;;;1.92;100.00
69570;BME280;56781;42.292;23.146;2023-04-15T01:02:39;94895.78;;;1.99;100.00
69570;BME280;56781;42.292;23.146;2023-04-15T01:05:07;94895.47;;;1.86;100.00
69570;BME280;56781;42.292;23.146;2023-04-15T01:07:35;94901.31;;;1.93;100.00
69570;BME280;56781;42.292;23.146;2023-04-15T01:10:03;94904.72;;;1.93;100.00
69570;BME280;56781;42.292;23.146;2023-04-15T01:12:31;94903.13;;;1.82;100.00
69570;BME280;56781;42.292;23.146;2023-04-15T01:14:59;94898.00;;;1.60;100.00
69570;BME280;56781;42.292;23.146;2023-04-15T01:17:27;94897.91;;;1.35;100.00
69570;BME280;56781;42.292;23.146;2023-04-15T01:19:55;94899.00;;;1.39;100.00
69570;BME280;56781;42.292;23.146;2023-04-15T01:22:24;94898.03;;;1.55;100.00
69570;BME280;56781;42.292;23.146;2023-04-15T01:25:11;94892.50;;;1.62;100.00
69570;BME280;56781;42.292;23.146;2023-04-15T01:27:40;94882.19;;;1.60;100.00
69570;BME280;56781;42.292;23.146;2023-04-15T01:30:08;94891.16;;;1.54;100.00
69570;BME280;56781;42.292;23.146;2023-04-15T01:32:36;94897.03;;;1.71;100.00
69570;BME280;56781;42.292;23.146;2023-04-15T01:35:04;94891.78;;;1.87;100.00
69570;BME280;56781;42.292;23.146;2023-04-15T01:37:31;94881.75;;;1.89;100.00
69570;BME280;56781;42.292;23.146;2023-04-15T01:39:58;94907.69;;;2.12;100.00
69570;BME280;56781;42.292;23.146;2023-04-15T01:42:26;94926.72;;;2.35;100.00
69570;BME280;56781;42.292;23.146;2023-04-15T01:44:53;94904.53;;;2.26;100.00
69570;BME280;56781;42.292;23.146;2023-04-15T01:47:20;94903.47;;;2.27;100.00
69570;BME280;56781;42.292;23.146;2023-04-15T01:49:48;94907.69;;;2.22;100.00
69570;BME280;56781;42.292;23.146;2023-04-15T01:52:15;94906.09;;;2.27;100.00
69570;BME280;56781;42.292;23.146;2023-04-15T01:54:42;94892.66;;;2.23;100.00
69570;BME280;56781;42.292;23.146;2023-04-15T01:57:09;94906.91;;;2.32;100.00
69570;BME280;56781;42.292;23.146;2023-04-15T01:59:37;94910.31;;;2.28;100.00
69570;BME280;56781;42.292;23.146;2023-04-15T02:02:04;94911.13;;;2.23;100.00
69570;BME280;56781;42.292;23.146;2023-04-15T02:04:31;94907.97;;;2.36;100.00
69570;BME280;56781;42.292;23.146;2023-04-15T02:06:58;94906.66;;;2.49;100.00
69570;BME280;56781;42.292;23.146;2023-04-15T02:09:25;94917.75;;;2.56;100.00
69570;BME280;56781;42.292;23.146;2023-04-15T02:11:52;94922.53;;;2.75;100.00
69570;BME280;56781;42.292;23.146;2023-04-15T02:14:20;94908.78;;;2.78;100.00
69570;BME280;56781;42.292;23.146;2023-04-15T02:16:47;94907.44;;;2.75;100.00
69570;BME280;56781;42.292;23.146;2023-04-15T02:19:14;94902.94;;;2.71;100.00
69570;BME280;56781;42.292;23.146;2023-04-15T02:21:41;94925.13;;;2.90;100.00
69570;BME280;56781;42.292;23.146;2023-04-15T02:24:08;94905.06;;;2.79;100.00
69570;BME280;56781;42.292;23.146;2023-04-15T02:26:35;94899.78;;;2.69;100.00
69570;BME280;56781;42.292;23.146;2023-04-15T02:29:02;94900.84;;;2.62;100.00
69570;BME280;56781;42.292;23.146;2023-04-15T02:31:29;94896.59;;;2.41;100.00
69570;BME280;56781;42.292;23.146;2023-04-15T02:33:59;94903.47;;;2.21;100.00
69570;BME280;56781;42.292;23.146;2023-04-15T02:36:29;94907.56;;;1.71;100.00
69570;BME280;56781;42.292;23.146;2023-04-15T02:38:57;94905.94;;;1.07;100.00
69570;BME280;56781;42.292;23.146;2023-04-15T02:41:24;94902.25;;;1.03;100.00
69570;BME280;56781;42.292;23.146;2023-04-15T02:43:53;94903.97;;;0.82;100.00
69570;BME280;56781;42.292;23.146;2023-04-15T02:46:20;94898.00;;;1.02;100.00
69570;BME280;56781;42.292;23.146;2023-04-15T02:48:49;94920.72;;;1.08;100.00
69570;BME280;56781;42.292;23.146;2023-04-15T02:51:18;94895.41;;;0.65;100.00
69570;BME280;56781;42.292;23.146;2023-04-15T02:53:47;94923.00;;;0.57;100.00
69570;BME280;56781;42.292;23.146;2023-04-15T02:56:15;94918.63;;;0.73;100.00
69570;BME280;56781;42.292;23.146;2023-04-15T02:58:43;94920.31;;;0.84;100.00
69570;BME280;56781;42.292;23.146;2023-04-15T03:01:11;94899.44;;;0.78;100.00
69570;BME280;56781;42.292;23.146;2023-04-15T03:03:38;94909.09;;;1.04;100.00
69570;BME280;56781;42.292;23.146;2023-04-15T03:06:06;94902.41;;;0.86;100.00
69570;BME280;56781;42.292;23.146;2023-04-15T03:08:34;94915.84;;;0.85;100.00
69570;BME280;56781;42.292;23.146;2023-04-15T03:11:02;94906.72;;;0.60;100.00
69570;BME280;56781;42.292;23.146;2023-04-15T03:13:29;94931.09;;;0.51;100.00
69570;BME280;56781;42.292;23.146;2023-04-15T03:15:56;94931.31;;;0.44;100.00
69570;BME280;56781;42.292;23.146;2023-04-15T03:18:24;94927.91;;;0.49;100.00
69570;BME280;56781;42.292;23.146;2023-04-15T03:20:51;94956.72;;;0.93;100.00
69570;BME280;56781;42.292;23.146;2023-04-15T03:23:18;94932.31;;;1.07;100.00
69570;BME280;56781;42.292;23.146;2023-04-15T03:25:45;94939.84;;;1.31;100.00
69570;BME280;56781;42.292;23.146;2023-04-15T03:28:12;94960.22;;;1.51;100.00
69570;BME280;56781;42.292;23.146;2023-04-15T03:30:39;94944.31;;;1.36;100.00
69570;BME280;56781;42.292;23.146;2023-04-15T03:33:07;94942.50;;;1.36;100.00
69570;BME280;56781;42.292;23.146;2023-04-15T03:35:34;94950.41;;;1.36;100.00
69570;BME280;56781;42.292;23.146;2023-04-15T03:38:02;94958.50;;;1.24;100.00
69570;BME280;56781;42.292;23.146;2023-04-15T03:40:29;94955.13;;;1.29;100.00
69570;BME280;56781;42.292;23.146;2023-04-15T03:42:56;94958.34;;;1.46;100.00
69570;BME280;56781;42.292;23.146;2023-04-15T03:45:23;94949.78;;;1.19;100.00
69570;BME280;56781;42.292;23.146;2023-04-15T03:47:51;94951.00;;;1.01;100.00
69570;BME280;56781;42.292;23.146;2023-04-15T03:50:18;94961.44;;;0.91;100.00
69570;BME280;56781;42.292;23.146;2023-04-15T03:52:45;94964.00;;;0.48;100.00
69570;BME280;56781;42.292;23.146;2023-04-15T03:55:14;94964.31;;;0.52;100.00
69570;BME280;56781;42.292;23.146;2023-04-15T03:57:41;94985.31;;;0.47;100.00
69570;BME280;56781;42.292;23.146;2023-04-15T04:00:09;94964.34;;;0.30;100.00
69570;BME280;56781;42.292;23.146;2023-04-15T04:02:36;94971.56;;;0.12;100.00
69570;BME280;56781;42.292;23.146;2023-04-15T04:05:03;94960.25;;;0.39;100.00
69570;BME280;56781;42.292;23.146;2023-04-15T04:07:31;94960.72;;;0.63;100.00
69570;BME280;56781;42.292;23.146;2023-04-15T04:09:58;94977.72;;;0.23;100.00
69570;BME280;56781;42.292;23.146;2023-04-15T04:12:25;94992.94;;;-0.28;100.00
69570;BME280;56781;42.292;23.146;2023-04-15T04:14:52;95014.81;;;-0.01;100.00
69570;BME280;56781;42.292;23.146;2023-04-15T04:17:19;94987.47;;;0.22;100.00
69570;BME280;56781;42.292;23.146;2023-04-15T04:19:46;94994.31;;;0.51;100.00
69570;BME280;56781;42.292;23.146;2023-04-15T04:22:13;94986.97;;;0.53;100.00
69570;BME280;56781;42.292;23.146;2023-04-15T04:24:41;94985.94;;;0.59;100.00
69570;BME280;56781;42.292;23.146;2023-04-15T04:27:08;95016.66;;;0.75;100.00
69570;BME280;56781;42.292;23.146;2023-04-15T04:29:35;94997.88;;;0.39;100.00
69570;BME280;56781;42.292;23.146;2023-04-15T04:32:03;94990.66;;;0.52;100.00
69570;BME280;56781;42.292;23.146;2023-04-15T04:34:30;95003.06;;;0.88;100.00
69570;BME280;56781;42.292;23.146;2023-04-15T04:36:58;94997.88;;;0.99;100.00
69570;BME280;56781;42.292;23.146;2023-04-15T04:39:25;94999.50;;;1.05;100.00
69570;BME280;56781;42.292;23.146;2023-04-15T04:41:52;94994.63;;;1.24;100.00
69570;BME280;56781;42.292;23.146;2023-04-15T04:44:19;95003.00;;;1.16;100.00
69570;BME280;56781;42.292;23.146;2023-04-15T04:46:46;95005.19;;;1.29;100.00
69570;BME280;56781;42.292;23.146;2023-04-15T04:49:14;95000.31;;;1.48;100.00
69570;BME280;56781;42.292;23.146;2023-04-15T04:51:41;95003.97;;;1.94;100.00
69570;BME280;56781;42.292;23.146;2023-04-15T04:54:08;95012.88;;;2.61;100.00
69570;BME280;56781;42.292;23.146;2023-04-15T04:56:35;95015.81;;;2.80;100.00
69570;BME280;56781;42.292;23.146;2023-04-15T04:59:04;95006.28;;;3.20;100.00
69570;BME280;56781;42.292;23.146;2023-04-15T05:01:32;95004.59;;;3.81;100.00
69570;BME280;56781;42.292;23.146;2023-04-15T05:04:00;95016.19;;;4.55;100.00
69570;BME280;56781;42.292;23.146;2023-04-15T05:06:27;95043.59;;;4.84;100.00
69570;BME280;56781;42.292;23.146;2023-04-15T05:08:56;95033.34;;;5.12;100.00
69570;BME280;56781;42.292;23.146;2023-04-15T05:11:23;95044.91;;;4.87;100.00
69570;BME280;56781;42.292;23.146;2023-04-15T05:13:51;95017.41;;;5.12;100.00
69570;BME280;56781;42.292;23.146;2023-04-15T05:16:18;95029.31;;;5.49;96.97
69570;BME280;56781;42.292;23.146;2023-04-15T05:18:46;95029.38;;;7.02;92.23
69570;BME280;56781;42.292;23.146;2023-04-15T05:21:13;95027.47;;;9.06;82.75
69570;BME280;56781;42.292;23.146;2023-04-15T05:23:40;95018.91;;;11.43;72.08
69570;BME280;56781;42.292;23.146;2023-04-15T05:26:08;95018.81;;;12.63;66.93
69570;BME280;56781;42.292;23.146;2023-04-15T05:28:35;95020.78;;;13.47;65.28
69570;BME280;56781;42.292;23.146;2023-04-15T05:31:02;95031.72;;;13.63;61.58
69570;BME280;56781;42.292;23.146;2023-04-15T05:33:30;95043.03;;;15.65;57.79
69570;BME280;56781;42.292;23.146;2023-04-15T05:35:57;95032.09;;;14.93;55.04
69570;BME280;56781;42.292;23.146;2023-04-15T05:38:24;95056.06;;;15.63;56.48
69570;BME280;56781;42.292;23.146;2023-04-15T05:40:51;95045.63;;;15.89;54.71
69570;BME280;56781;42.292;23.146;2023-04-15T05:43:18;95062.19;;;17.69;48.38
69570;BME280;56781;42.292;23.146;2023-04-15T05:45:45;95054.41;;;16.30;53.58
69570;BME280;56781;42.292;23.146;2023-04-15T05:48:12;95067.19;;;17.48;50.13
69570;BME280;56781;42.292;23.146;2023-04-15T05:50:40;95062.91;;;18.05;46.37
69570;BME280;56781;42.292;23.146;2023-04-15T05:53:08;95056.44;;;16.81;50.12
69570;BME280;56781;42.292;23.146;2023-04-15T05:55:35;95056.16;;;16.70;50.69
69570;BME280;56781;42.292;23.146;2023-04-15T05:58:02;95047.75;;;16.12;52.81
69570;BME280;56781;42.292;23.146;2023-04-15T06:00:29;95054.31;;;16.90;50.71
69570;BME280;56781;42.292;23.146;2023-04-15T06:02:56;95032.00;;;15.42;55.45
69570;BME280;56781;42.292;23.146;2023-04-15T06:05:24;95047.06;;;16.31;53.18
69570;BME280;56781;42.292;23.146;2023-04-15T06:07:51;95056.59;;;16.56;52.79
69570;BME280;56781;42.292;23.146;2023-04-15T06:10:19;95054.56;;;18.60;47.81
69570;BME280;56781;42.292;23.146;2023-04-15T06:12:46;95040.50;;;19.00;46.32
69570;BME280;56781;42.292;23.146;2023-04-15T06:15:13;95023.28;;;17.78;48.22
69570;BME280;56781;42.292;23.146;2023-04-15T06:17:40;95049.66;;;17.61;50.06
69570;BME280;56781;42.292;23.146;2023-04-15T06:20:07;95050.09;;;19.81;44.80
69570;BME280;56781;42.292;23.146;2023-04-15T06:22:36;95054.78;;;21.07;41.47
69570;BME280;56781;42.292;23.146;2023-04-15T06:25:05;95049.63;;;20.47;42.00
69570;BME280;56781;42.292;23.146;2023-04-15T06:27:33;95030.41;;;18.05;46.65
69570;BME280;56781;42.292;23.146;2023-04-15T06:30:01;95056.44;;;19.92;43.57
69570;BME280;56781;42.292;23.146;2023-04-15T06:32:28;95058.75;;;18.77;46.02
69570;BME280;56781;42.292;23.146;2023-04-15T06:34:55;95015.78;;;19.06;47.30
69570;BME280;56781;42.292;23.146;2023-04-15T06:37:22;95064.19;;;18.11;48.22
69570;BME280;56781;42.292;23.146;2023-04-15T06:39:49;95048.19;;;18.26;48.91
69570;BME280;56781;42.292;23.146;2023-04-15T06:42:17;95048.41;;;19.13;47.80
69570;BME280;56781;42.292;23.146;2023-04-15T06:44:44;95057.56;;;19.58;44.37
69570;BME280;56781;42.292;23.146;2023-04-15T06:47:12;95066.00;;;20.17;42.85
69570;BME280;56781;42.292;23.146;2023-04-15T06:49:40;95071.34;;;19.45;45.11
69570;BME280;56781;42.292;23.146;2023-04-15T06:52:09;95076.69;;;19.99;43.57
69570;BME280;56781;42.292;23.146;2023-04-15T06:54:37;95057.84;;;20.54;41.41
69570;BME280;56781;42.292;23.146;2023-04-15T06:57:04;95067.88;;;19.75;45.52
69570;BME280;56781;42.292;23.146;2023-04-15T06:59:33;95047.56;;;20.77;41.32
69570;BME280;56781;42.292;23.146;2023-04-15T07:02:00;95053.63;;;20.60;41.65
69570;BME280;56781;42.292;23.146;2023-04-15T07:04:27;95074.00;;;20.40;42.32
69570;BME280;56781;42.292;23.146;2023-04-15T07:06:54;95066.69;;;19.73;44.65
69570;BME280;56781;42.292;23.146;2023-04-15T07:09:23;95069.06;;;20.93;42.64
69570;BME280;56781;42.292;23.146;2023-04-15T07:11:50;95067.19;;;20.19;45.72
69570;BME280;56781;42.292;23.146;2023-04-15T07:14:18;95035.03;;;21.17;42.74
69570;BME280;56781;42.292;23.146;2023-04-15T07:16:45;95043.31;;;20.84;42.29
69570;BME280;56781;42.292;23.146;2023-04-15T07:19:12;95033.84;;;20.22;43.82
69570;BME280;56781;42.292;23.146;2023-04-15T07:21:40;95045.97;;;19.04;43.19
69570;BME280;56781;42.292;23.146;2023-04-15T07:24:08;95032.09;;;19.09;42.39
69570;BME280;56781;42.292;23.146;2023-04-15T07:26:36;95060.53;;;20.13;40.17
69570;BME280;56781;42.292;23.146;2023-04-15T07:29:04;95067.09;;;18.68;41.38
69570;BME280;56781;42.292;23.146;2023-04-15T07:31:31;95057.63;;;19.65;43.44
69570;BME280;56781;42.292;23.146;2023-04-15T07:33:59;95062.00;;;19.43;40.75
69570;BME280;56781;42.292;23.146;2023-04-15T07:36:26;95055.28;;;18.34;40.33
69570;BME280;56781;42.292;23.146;2023-04-15T07:38:54;95056.91;;;18.61;41.95
69570;BME280;56781;42.292;23.146;2023-04-15T07:41:22;95055.69;;;18.78;41.62
69570;BME280;56781;42.292;23.146;2023-04-15T07:43:49;95070.75;;;18.76;39.07
69570;BME280;56781;42.292;23.146;2023-04-15T07:46:16;95054.75;;;18.71;41.67
69570;BME280;56781;42.292;23.146;2023-04-15T07:48:43;95050.84;;;18.68;41.40
69570;BME280;56781;42.292;23.146;2023-04-15T07:51:11;95070.53;;;18.88;40.92
69570;BME280;56781;42.292;23.146;2023-04-15T07:53:38;95046.53;;;18.67;40.72
69570;BME280;56781;42.292;23.146;2023-04-15T07:56:05;95055.25;;;18.76;39.66
69570;BME280;56781;42.292;23.146;2023-04-15T07:58:33;95072.13;;;18.24;38.46
69570;BME280;56781;42.292;23.146;2023-04-15T08:01:00;95080.53;;;18.38;41.00
69570;BME280;56781;42.292;23.146;2023-04-15T08:03:27;95079.66;;;18.76;40.99
69570;BME280;56781;42.292;23.146;2023-04-15T08:05:55;95071.25;;;18.85;37.69
69570;BME280;56781;42.292;23.146;2023-04-15T08:08:22;95056.72;;;17.66;37.91
69570;BME280;56781;42.292;23.146;2023-04-15T08:10:49;95066.69;;;18.01;39.79
69570;BME280;56781;42.292;23.146;2023-04-15T08:13:18;95055.50;;;17.83;40.94
69570;BME280;56781;42.292;23.146;2023-04-15T08:16:11;95058.38;;;17.90;40.34
69570;BME280;56781;42.292;23.146;2023-04-15T08:18:39;95057.22;;;18.10;43.73
69570;BME280;56781;42.292;23.146;2023-04-15T08:21:06;95073.53;;;18.37;38.74
69570;BME280;56781;42.292;23.146;2023-04-15T08:23:34;95073.56;;;18.83;41.21
69570;BME280;56781;42.292;23.146;2023-04-15T08:26:01;95062.13;;;17.85;39.88
69570;BME280;56781;42.292;23.146;2023-04-15T08:28:28;95060.56;;;17.65;42.28
69570;BME280;56781;42.292;23.146;2023-04-15T08:30:56;95062.84;;;18.02;40.64
69570;BME280;56781;42.292;23.146;2023-04-15T08:33:23;95066.72;;;17.81;41.27
69570;BME280;56781;42.292;23.146;2023-04-15T08:35:50;95051.25;;;17.82;43.45
69570;BME280;56781;42.292;23.146;2023-04-15T08:38:17;95031.31;;;18.13;43.16
69570;BME280;56781;42.292;23.146;2023-04-15T08:40:45;95055.44;;;17.40;40.10
69570;BME280;56781;42.292;23.146;2023-04-15T08:43:20;95040.19;;;17.71;40.59
69570;BME280;56781;42.292;23.146;2023-04-15T08:45:50;95042.50;;;18.34;39.99
69570;BME280;56781;42.292;23.146;2023-04-15T08:48:18;95029.13;;;17.99;39.68
69570;BME280;56781;42.292;23.146;2023-04-15T08:50:46;95038.53;;;18.28;40.54
69570;BME280;56781;42.292;23.146;2023-04-15T08:53:14;95028.09;;;17.84;39.98
69570;BME280;56781;42.292;23.146;2023-04-15T08:55:43;95047.88;;;17.88;39.46
69570;BME280;56781;42.292;23.146;2023-04-15T08:58:12;95048.13;;;17.25;39.65
69570;BME280;56781;42.292;23.146;2023-04-15T09:00:40;95048.28;;;17.32;37.68
69570;BME280;56781;42.292;23.146;2023-04-15T09:03:08;95039.97;;;17.41;37.88
69570;BME280;56781;42.292;23.146;2023-04-15T09:05:36;95037.53;;;17.55;38.06
69570;BME280;56781;42.292;23.146;2023-04-15T09:08:04;95026.81;;;18.44;38.63
69570;BME280;56781;42.292;23.146;2023-04-15T09:10:32;95032.72;;;18.49;37.57
69570;BME280;56781;42.292;23.146;2023-04-15T09:13:00;95017.88;;;18.89;36.56
69570;BME280;56781;42.292;23.146;2023-04-15T09:15:27;95022.56;;;18.69;37.68
69570;BME280;56781;42.292;23.146;2023-04-15T09:17:56;95043.19;;;19.27;39.27
69570;BME280;56781;42.292;23.146;2023-04-15T09:20:23;95027.59;;;18.94;36.74
69570;BME280;56781;42.292;23.146;2023-04-15T09:22:51;95029.94;;;18.46;38.91
69570;BME280;56781;42.292;23.146;2023-04-15T09:25:25;95028.44;;;18.02;37.96
69570;BME280;56781;42.292;23.146;2023-04-15T09:28:00;95026.19;;;18.31;41.08
69570;BME280;56781;42.292;23.146;2023-04-15T09:30:28;95047.88;;;19.00;37.16
69570;BME280;56781;42.292;23.146;2023-04-15T09:32:56;95026.78;;;18.21;39.14
69570;BME280;56781;42.292;23.146;2023-04-15T09:35:25;95031.06;;;17.99;38.52
69570;BME280;56781;42.292;23.146;2023-04-15T09:38:04;95013.25;;;17.78;37.82
69570;BME280;56781;42.292;23.146;2023-04-15T09:42:59;95031.53;;;18.04;38.75
69570;BME280;56781;42.292;23.146;2023-04-15T09:45:28;95023.66;;;17.76;38.14
69570;BME280;56781;42.292;23.146;2023-04-15T09:47:57;95027.72;;;17.47;37.45
69570;BME280;56781;42.292;23.146;2023-04-15T09:50:28;95011.91;;;17.49;38.67
69570;BME280;56781;42.292;23.146;2023-04-15T09:52:55;95009.88;;;18.50;37.15
69570;BME280;56781;42.292;23.146;2023-04-15T09:55:23;95005.22;;;18.51;37.80
69570;BME280;56781;42.292;23.146;2023-04-15T09:57:50;94991.22;;;18.22;37.84
69570;BME280;56781;42.292;23.146;2023-04-15T10:00:17;94995.38;;;18.39;36.26
69570;BME280;56781;42.292;23.146;2023-04-15T10:02:46;94990.38;;;17.95;37.04
69570;BME280;56781;42.292;23.146;2023-04-15T10:05:14;94995.75;;;18.37;38.96
69570;BME280;56781;42.292;23.146;2023-04-15T10:07:44;94985.72;;;18.42;36.39
69570;BME280;56781;42.292;23.146;2023-04-15T10:10:12;94991.56;;;18.21;34.77
69570;BME280;56781;42.292;23.146;2023-04-15T10:12:41;94980.28;;;17.72;35.87
69570;BME280;56781;42.292;23.146;2023-04-15T10:15:16;94996.13;;;18.63;36.76
69570;BME280;56781;42.292;23.146;2023-04-15T10:17:47;94961.53;;;18.06;35.42
69570;BME280;56781;42.292;23.146;2023-04-15T10:20:18;94991.28;;;18.26;36.17
69570;BME280;56781;42.292;23.146;2023-04-15T10:22:45;94986.41;;;18.35;35.14
69570;BME280;56781;42.292;23.146;2023-04-15T10:25:14;94977.63;;;18.19;35.41
69570;BME280;56781;42.292;23.146;2023-04-15T10:27:41;94992.69;;;18.66;38.60
69570;BME280;56781;42.292;23.146;2023-04-15T10:30:09;94974.94;;;18.45;36.08
69570;BME280;56781;42.292;23.146;2023-04-15T10:32:37;94980.75;;;18.70;33.81
69570;BME280;56781;42.292;23.146;2023-04-15T10:35:05;94980.88;;;18.28;33.13
69570;BME280;56781;42.292;23.146;2023-04-15T10:37:36;94978.09;;;18.74;34.70
69570;BME280;56781;42.292;23.146;2023-04-15T10:40:28;94969.09;;;18.93;32.42
69570;BME280;56781;42.292;23.146;2023-04-15T10:43:00;94953.88;;;18.61;33.11
69570;BME280;56781;42.292;23.146;2023-04-15T10:45:32;94982.16;;;18.60;33.76
69570;BME280;56781;42.292;23.146;2023-04-15T10:48:05;94978.53;;;18.53;32.73
69570;BME280;56781;42.292;23.146;2023-04-15T10:50:33;94949.25;;;18.12;34.41
69570;BME280;56781;42.292;23.146;2023-04-15T10:53:03;94975.47;;;18.54;36.22
69570;BME280;56781;42.292;23.146;2023-04-15T10:55:32;94954.56;;;18.55;34.17
69570;BME280;56781;42.292;23.146;2023-04-15T10:58:01;94953.44;;;17.83;33.57
69570;BME280;56781;42.292;23.146;2023-04-15T11:00:30;94950.41;;;17.88;31.53
69570;BME280;56781;42.292;23.146;2023-04-15T11:03:04;94953.84;;;18.08;33.65
69570;BME280;56781;42.292;23.146;2023-04-15T11:05:50;94962.69;;;18.05;33.62
69570;BME280;56781;42.292;23.146;2023-04-15T11:08:18;94945.78;;;17.89;33.74
69570;BME280;56781;42.292;23.146;2023-04-15T11:13:17;94980.50;;;17.83;33.84
69570;BME280;56781;42.292;23.146;2023-04-15T11:15:48;94987.28;;;18.43;31.57
69570;BME280;56781;42.292;23.146;2023-04-15T11:18:25;94972.38;;;18.06;29.97
69570;BME280;56781;42.292;23.146;2023-04-15T11:20:56;94969.03;;;18.39;31.55
69570;BME280;56781;42.292;23.146;2023-04-15T11:23:39;94955.50;;;17.93;31.14
69570;BME280;56781;42.292;23.146;2023-04-15T11:26:08;94979.19;;;18.20;34.88
69570;BME280;56781;42.292;23.146;2023-04-15T11:28:37;94966.28;;;18.36;31.84
69570;BME280;56781;42.292;23.146;2023-04-15T11:31:09;94970.31;;;18.23;35.03
69570;BME280;56781;42.292;23.146;2023-04-15T11:33:43;94980.06;;;18.50;33.03
69570;BME280;56781;42.292;23.146;2023-04-15T11:36:11;94967.13;;;18.90;31.83
69570;BME280;56781;42.292;23.146;2023-04-15T11:38:42;94968.06;;;18.74;33.60
69570;BME280;56781;42.292;23.146;2023-04-15T11:41:10;94976.50;;;19.26;31.24
69570;BME280;56781;42.292;23.146;2023-04-15T11:43:38;94986.97;;;18.48;31.91
69570;BME280;56781;42.292;23.146;2023-04-15T11:46:05;94981.41;;;18.87;30.22
69570;BME280;56781;42.292;23.146;2023-04-15T11:48:34;94980.56;;;18.33;31.36
69570;BME280;56781;42.292;23.146;2023-04-15T11:51:03;94973.81;;;18.99;31.37
69570;BME280;56781;42.292;23.146;2023-04-15T11:53:47;94960.50;;;18.87;32.23
69570;BME280;56781;42.292;23.146;2023-04-15T11:56:22;94953.09;;;18.61;31.50
69570;BME280;56781;42.292;23.146;2023-04-15T11:58:55;94951.22;;;18.38;31.37
69570;BME280;56781;42.292;23.146;2023-04-15T12:01:36;94979.25;;;18.99;33.73
69570;BME280;56781;42.292;23.146;2023-04-15T12:04:16;94970.31;;;18.72;32.31
69570;BME280;56781;42.292;23.146;2023-04-15T12:06:48;94974.88;;;18.42;31.78
69570;BME280;56781;42.292;23.146;2023-04-15T12:09:16;94969.25;;;18.04;31.53
69570;BME280;56781;42.292;23.146;2023-04-15T12:11:47;94936.09;;;18.11;32.04
69570;BME280;56781;42.292;23.146;2023-04-15T12:14:18;94942.94;;;18.28;32.44
69570;BME280;56781;42.292;23.146;2023-04-15T12:16:48;94934.81;;;18.54;33.16
69570;BME280;56781;42.292;23.146;2023-04-15T12:19:37;94945.41;;;18.63;31.18
69570;BME280;56781;42.292;23.146;2023-04-15T12:22:08;94926.88;;;18.69;31.61
69570;BME280;56781;42.292;23.146;2023-04-15T12:24:37;94939.88;;;18.82;31.25
69570;BME280;56781;42.292;23.146;2023-04-15T12:27:09;94939.47;;;19.11;32.83
69570;BME280;56781;42.292;23.146;2023-04-15T12:29:39;94947.88;;;19.32;32.03
69570;BME280;56781;42.292;23.146;2023-04-15T12:32:09;94929.63;;;18.99;31.00
69570;BME280;56781;42.292;23.146;2023-04-15T12:34:41;94937.91;;;19.10;32.55
69570;BME280;56781;42.292;23.146;2023-04-15T12:37:10;94946.69;;;18.99;32.68
69570;BME280;56781;42.292;23.146;2023-04-15T12:39:42;94927.50;;;18.58;33.29
69570;BME280;56781;42.292;23.146;2023-04-15T12:42:10;94933.63;;;18.52;34.77
69570;BME280;56781;42.292;23.146;2023-04-15T12:44:38;94915.94;;;18.35;33.31
69570;BME280;56781;42.292;23.146;2023-04-15T12:47:06;94936.34;;;18.02;32.46
69570;BME280;56781;42.292;23.146;2023-04-15T12:49:34;94945.63;;;18.28;33.36
69570;BME280;56781;42.292;23.146;2023-04-15T12:52:01;94946.53;;;18.12;34.00
69570;BME280;56781;42.292;23.146;2023-04-15T12:54:30;94951.97;;;18.35;33.48
69570;BME280;56781;42.292;23.146;2023-04-15T12:56:58;94926.84;;;18.15;34.59
69570;BME280;56781;42.292;23.146;2023-04-15T12:59:25;94924.78;;;18.05;34.95
69570;BME280;56781;42.292;23.146;2023-04-15T13:01:53;94948.88;;;18.37;34.74